KSAD/SAD METAR and TAF weather

Enter ICAO airport designator
Station Type Date Time Source
KSAD METAR 2022/01/18 06:51 UTC NOAA

KSAD 180651Z AUTO 10003KT 10SM CLR 03/M05 A3007 RMK AO2 SLP172 T00331050 401670006 $


Station Type Date Time Source
KSAD Decoded METAR 2022/01/18 06:51 UTC NOAA

SAFFORD MUNICIPAL AIRPORT, AZ, United States (KSAD) 32-51N 109-38W 962M
Jan 18, 2022 - 01:51 AM EST / 2022.01.18 0651 UTC
Wind: from the E (100 degrees) at 3 MPH (3 KT):0
Visibility: 10 mile(s):0
Sky conditions: clear
Temperature: 37.9 F (3.3 C)
Dew Point: 23.0 F (-5.0 C)
Relative Humidity: 54%
Pressure (altimeter): 30.07 in. Hg (1018 hPa)
ob: KSAD 180651Z AUTO 10003KT 10SM CLR 03/M05 A3007 RMK AO2 SLP172 T00331050 401670006
cycle: 7

Station Type Date Time Source
KSAD TAF UTC NOAA

Error!

Example: see airport list